RJSN(TAF)
8/13 2h
TAF RJSN 121711Z 1218/1400 17005KT 9999 FEW010 BKN040 TEMPO
1219/1300 3000 SHRA BR BECMG 1304/1306 02010KT BECMG
1312/1315 25006KT TEMPO 1312/1318 3000 TSRA BR FEW008
BKN015 FEW020CB=
戻る
トップページへ戻る
IMOC Co,.Ltd.